Time;durP1;ratioP1;P1;durP2;ratioP2;P2;SDS_P1;SDS_P2;PMS_P1;PMS_P2;Temp;Humidity;BMP_temperature;BMP_pressure;BME280_temperature;BME280_humidity;BME280_pressure;Samples;Min_cycle;Max_cycle;Signal;HPM_P1;HPM_P2
2022/09/24 00:00:21;;;;;;;21.60;9.93;;;;;;;11.85;83.62;100747.66;5051131;57;1141075;-67
2022/09/24 00:05:28;;;;;;;24.73;11.30;;;;;;;11.82;83.78;100743.08;5155656;56;1141018;-67
2022/09/24 00:10:39;;;;;;;28.20;12.10;;;;;;;11.83;83.96;100746.09;5143584;57;1143200;-66
2022/09/24 00:15:48;;;;;;;18.10;9.60;;;;;;;11.78;83.90;100741.63;5228442;55;1143357;-66
2022/09/24 00:20:54;;;;;;;23.57;9.53;;;;;;;11.73;83.85;100734.52;5225067;55;1141174;-66
2022/09/24 00:31:25;;;;;;;13.37;7.60;;;;;;;11.64;84.05;100726.79;5223874;56;1141145;-67
2022/09/24 00:36:31;;;;;;;15.87;8.10;;;;;;;11.70;84.31;100728.13;5260385;55;1141201;-68
2022/09/24 00:41:39;;;;;;;13.05;8.25;;;;;;;11.78;84.30;100724.41;5317356;55;1141081;-65
2022/09/24 00:46:45;;;;;;;15.97;8.90;;;;;;;11.75;84.11;100709.59;5216830;56;1141093;-68
2022/09/24 00:51:53;;;;;;;20.13;9.70;;;;;;;11.71;84.11;100711.27;5317400;55;1141070;-64
2022/09/24 00:57:01;;;;;;;16.07;9.13;;;;;;;11.66;84.17;100700.18;5273911;55;1141327;-66
2022/09/24 01:02:07;;;;;;;19.20;10.27;;;;;;;11.67;84.53;100702.72;5216755;56;1141093;-65
2022/09/24 01:07:13;;;;;;;14.90;8.43;;;;;;;11.68;84.73;100693.80;5181506;56;1143180;-67
2022/09/24 01:12:27;;;;;;;15.00;8.37;;;;;;;11.64;84.49;100692.35;5317216;55;1141117;-67
2022/09/24 01:18:11;;;;;;;22.03;9.20;;;;;;;11.60;84.52;100690.45;5311056;55;1141310;-67
2022/09/24 01:24:11;;;;;;;18.37;9.80;;;;;;;11.60;84.76;100682.50;5228452;56;1138890;-66
2022/09/24 01:29:45;;;;;;;18.93;8.80;;;;;;;11.64;84.92;100685.25;5228307;56;1136897;-65
2022/09/24 01:35:17;;;;;;;24.83;9.30;;;;;;;11.68;85.00;100679.23;5192559;56;1141344;-66
2022/09/24 01:40:26;;;;;;;16.43;9.23;;;;;;;11.68;84.96;100670.44;5228277;56;1141104;-67
2022/09/24 01:45:33;;;;;;;18.37;9.83;;;;;;;11.57;84.97;100664.68;5228011;56;1141316;-68
2022/09/24 01:50:46;;;;;;;22.33;9.83;;;;;;;11.49;85.24;100668.40;5224325;55;1141158;-65
2022/09/24 01:55:57;;;;;;;;;;;;;;;11.44;85.48;100663.97;5232135;56;1141047;-66
2022/09/24 02:01:10;;;;;;;17.57;8.20;;;;;;;11.49;85.71;100661.30;5307385;55;976279;-67
2022/09/24 02:06:44;;;;;;;14.43;8.63;;;;;;;11.54;85.67;100661.78;5317441;55;1138924;-68
2022/09/24 02:11:53;;;;;;;20.47;9.10;;;;;;;11.60;85.87;100661.31;5323011;55;1141055;-66
2022/09/24 02:17:01;;;;;;;16.33;9.17;;;;;;;11.67;86.28;100653.70;5298529;55;1141155;-66
2022/09/24 02:22:10;;;;;;;15.80;9.37;;;;;;;11.64;86.04;100655.27;5243595;55;1141070;-68
2022/09/24 02:27:17;;;;;;;19.47;10.63;;;;;;;11.61;86.10;100647.55;5241952;56;1141102;-64
2022/09/24 02:32:26;;;;;;;20.17;9.93;;;;;;;11.59;86.18;100645.53;5241838;56;1143163;-67
2022/09/24 02:37:38;;;;;;;18.93;8.57;;;;;;;11.55;86.27;100640.95;5242083;55;1141245;-67
2022/09/24 02:42:44;;;;;;;19.70;9.13;;;;;;;11.54;86.16;100640.59;5242446;55;1141020;-67
2022/09/24 02:47:51;;;;;;;14.73;8.73;;;;;;;11.54;86.23;100636.63;5259958;55;1141047;-64
2022/09/24 02:52:57;;;;;;;19.60;9.50;;;;;;;11.57;86.39;100630.24;5315621;55;1141067;-65
2022/09/24 02:58:02;;;;;;;21.13;9.10;;;;;;;11.56;86.35;100629.40;5308041;55;1138907;-64
2022/09/24 03:03:08;;;;;;;18.83;10.23;;;;;;;11.52;86.22;100627.95;5242756;55;1139286;-66
2022/09/24 03:08:14;;;;;;;21.27;10.97;;;;;;;11.45;86.24;100632.07;5243035;55;1141300;-68
2022/09/24 03:13:20;;;;;;;21.57;9.57;;;;;;;11.37;86.50;100628.33;5244201;55;1141533;-68
2022/09/24 03:18:26;;;;;;;17.67;8.43;;;;;;;11.36;86.59;100630.13;5154291;56;1138954;-67
2022/09/24 03:23:32;;;;;;;23.20;10.27;;;;;;;11.38;86.57;100625.56;5231049;55;1138995;-67
2022/09/24 03:28:38;;;;;;;18.40;9.37;;;;;;;11.37;86.89;100624.35;5255737;55;1141081;-68
2022/09/24 03:33:48;;;;;;;21.00;11.30;;;;;;;11.37;86.89;100624.35;5258592;55;1138992;-66
2022/09/24 03:38:57;;;;;;;20.00;9.67;;;;;;;11.38;87.11;100618.94;5241083;55;1141078;-68
2022/09/24 03:44:03;;;;;;;18.00;10.50;;;;;;;11.38;87.36;100620.27;5129472;57;1138934;-67
2022/09/24 03:49:10;;;;;;;23.37;9.53;;;;;;;11.37;87.81;100620.38;5228085;56;1141028;-65
2022/09/24 03:54:16;;;;;;;24.67;9.27;;;;;;;11.32;87.44;100614.12;5268681;55;1139059;-67
2022/09/24 03:59:21;;;;;;;15.80;8.83;;;;;;;11.34;87.54;100616.16;5316514;55;1139238;-65
2022/09/24 04:04:27;;;;;;;16.97;9.30;;;;;;;11.29;87.47;100619.68;5281653;55;1139238;-65
2022/09/24 04:09:33;;;;;;;17.30;10.03;;;;;;;11.20;87.64;100615.09;5317304;55;1138929;-65
2022/09/24 04:14:39;;;;;;;20.75;10.32;;;;;;;11.16;87.80;100619.78;5317184;55;1141049;-65
2022/09/24 04:19:45;;;;;;;19.83;9.43;;;;;;;11.11;88.20;100615.83;5271855;55;1141030;-66
2022/09/24 04:24:51;;;;;;;18.63;8.60;;;;;;;11.09;88.24;100616.42;5228704;56;1136956;-66
2022/09/24 04:29:57;;;;;;;23.97;11.40;;;;;;;11.09;88.40;100616.42;5228569;56;1136992;-65
2022/09/24 04:35:03;;;;;;;31.82;11.50;;;;;;;11.10;88.64;100616.78;5233810;56;1143115;-68
2022/09/24 04:40:11;;;;;;;49.30;16.13;;;;;;;11.03;88.95;100608.95;5222307;55;1143150;-67
2022/09/24 04:45:18;;;;;;;38.83;16.13;;;;;;;10.92;89.29;100605.34;5314364;55;1146619;-64
2022/09/24 04:50:26;;;;;;;41.80;16.13;;;;;;;10.88;89.43;100600.40;5228493;56;1143131;-65
2022/09/24 04:55:32;;;;;;;42.07;16.03;;;;;;;10.89;89.63;100600.76;5228172;56;1143143;-66
2022/09/24 05:00:38;;;;;;;45.23;17.17;;;;;;;10.87;89.84;100598.23;5161626;56;1143265;-66
2022/09/24 05:05:44;;;;;;;42.40;18.70;;;;;;;10.84;90.14;100593.20;5048125;57;1143263;-67
2022/09/24 05:10:52;;;;;;;34.97;14.20;;;;;;;10.80;90.19;100598.84;5142169;56;1143163;-66
2022/09/24 05:15:59;;;;;;;26.57;12.83;;;;;;;10.79;90.15;100594.51;5142143;56;1143183;-68
2022/09/24 05:21:05;;;;;;;25.57;11.63;;;;;;;10.79;90.17;100586.57;5192639;56;1143206;-66
2022/09/24 05:31:35;;;;;;;22.70;11.18;;;;;;;10.86;90.33;100586.44;5142133;56;1143057;-65
2022/09/24 05:36:44;;;;;;;21.27;11.03;;;;;;;10.87;90.46;100588.12;5177902;55;1143081;-65
2022/09/24 05:41:50;;;;;;;29.53;11.40;;;;;;;10.85;90.37;100586.92;5227974;56;1143216;-65
2022/09/24 05:46:55;;;;;;;26.60;10.77;;;;;;;10.90;90.61;100587.89;5227876;56;1143482;-68
2022/09/24 05:52:01;;;;;;;28.13;12.00;;;;;;;10.96;90.59;100587.91;5227816;56;1143320;-65
2022/09/24 05:57:07;;;;;;;23.13;10.73;;;;;;;11.02;90.86;100587.41;5217961;56;1143179;-66
2022/09/24 06:02:14;;;;;;;22.80;10.27;;;;;;;11.05;90.94;100589.83;5080742;56;1143392;-64
2022/09/24 06:07:21;;;;;;;23.77;10.23;;;;;;;11.06;90.87;100593.67;5169631;56;1143263;-67
2022/09/24 06:12:28;;;;;;;14.73;8.80;;;;;;;11.07;91.06;100587.42;5087251;57;1143178;-67
2022/09/24 06:17:34;;;;;;;16.20;8.47;;;;;;;11.09;90.90;100589.47;5204751;56;1141017;-64
2022/09/24 06:22:40;;;;;;;19.50;8.90;;;;;;;11.14;90.99;100598.39;5163375;56;1141139;-65
2022/09/24 06:27:46;;;;;;;17.03;9.13;;;;;;;11.18;91.12;100592.70;5195069;56;1141148;-67
2022/09/24 06:32:52;;;;;;;17.77;9.53;;;;;;;11.19;91.35;100582.48;5157216;56;1140916;-65
2022/09/24 06:37:57;;;;;;;18.50;10.13;;;;;;;11.22;91.40;100587.53;5165436;56;1141089;-65
2022/09/24 06:43:04;;;;;;;14.43;8.10;;;;;;;11.28;91.92;100594.16;5188037;56;1143212;-67
2022/09/24 06:48:13;;;;;;;16.30;7.90;;;;;;;11.36;91.72;100593.54;5270703;55;1141063;-64
2022/09/24 06:53:19;;;;;;;15.10;8.97;;;;;;;11.48;91.96;100586.77;5213732;55;1141294;-65
2022/09/24 06:58:26;;;;;;;16.63;9.80;;;;;;;11.57;91.68;100587.38;5237143;55;1140397;-68
2022/09/24 07:03:34;;;;;;;28.87;13.13;;;;;;;11.64;91.73;100585.90;5221786;55;1141128;-65
2022/09/24 07:08:40;;;;;;;23.67;12.30;;;;;;;11.74;91.89;100589.99;5138390;56;1143141;-66
2022/09/24 07:13:46;;;;;;;17.97;9.97;;;;;;;11.81;91.79;100599.14;5155086;57;1143089;-65
2022/09/24 07:18:52;;;;;;;21.33;11.37;;;;;;;11.90;91.45;100603.70;5128096;57;1140953;-67
2022/09/24 07:23:58;;;;;;;19.02;11.00;;;;;;;11.97;91.51;100609.33;5094411;57;1140996;-65
2022/09/24 07:29:05;;;;;;;17.30;9.67;;;;;;;11.96;91.29;100604.52;5208218;56;1141298;-66
2022/09/24 07:34:11;;;;;;;17.67;10.83;;;;;;;12.01;91.59;100612.09;5156448;56;1138968;-67
2022/09/24 07:39:19;;;;;;;17.07;9.97;;;;;;;12.06;91.87;100614.38;5237346;56;1141184;-65
2022/09/24 07:44:24;;;;;;;14.83;8.20;;;;;;;12.15;91.80;100613.61;5242437;56;1139200;-67
2022/09/24 07:49:31;;;;;;;16.97;8.93;;;;;;;12.24;91.70;100612.84;5224089;56;1139058;-66
2022/09/24 07:54:37;;;;;;;15.80;9.70;;;;;;;12.33;91.42;100616.91;5220956;56;1139099;-66
2022/09/24 07:59:43;;;;;;;19.70;12.73;;;;;;;12.41;91.59;100613.60;5242759;55;1139169;-66
2022/09/24 08:04:49;;;;;;;15.23;9.60;;;;;;;12.48;91.39;100620.09;5242414;56;1141108;-66
2022/09/24 08:09:55;;;;;;;16.00;9.90;;;;;;;12.58;91.63;100622.80;5242268;56;1138971;-66
2022/09/24 08:15:01;;;;;;;20.53;9.03;;;;;;;12.66;91.56;100619.87;5242238;56;1139239;-67
2022/09/24 08:20:08;;;;;;;16.43;10.73;;;;;;;12.78;91.21;100617.98;5171966;56;1139070;-65
2022/09/24 08:25:15;;;;;;;22.17;13.73;;;;;;;12.92;91.53;100614.14;5123031;56;1141050;-68
2022/09/24 08:30:20;;;;;;;18.90;10.17;;;;;;;13.04;91.68;100621.05;5228516;56;1141101;-67
2022/09/24 08:35:26;;;;;;;24.97;13.40;;;;;;;13.13;91.22;100614.13;5294955;55;1141282;-65
2022/09/24 08:40:37;;;;;;;32.90;19.47;;;;;;;13.17;90.60;100619.53;5147711;56;1140975;-69
2022/09/24 08:51:18;;;;;;;17.93;9.83;;;;;;;13.38;90.58;100617.18;5163404;56;1143171;-67
2022/09/24 08:56:36;;;;;;;15.20;8.87;;;;;;;13.45;89.34;100617.95;5226003;56;1141055;-69
2022/09/24 09:02:12;;;;;;;15.47;8.93;;;;;;;13.54;89.10;100619.81;5142835;56;1141113;-63
2022/09/24 09:07:25;;;;;;;16.83;9.53;;;;;;;13.63;89.37;100621.16;5114566;56;1141247;-67
2022/09/24 09:12:36;;;;;;;;;;;;;;;13.72;89.45;100612.39;5174254;55;1140537;-62
2022/09/24 09:18:12;;;;;;;10.93;7.27;;;;;;;13.87;87.93;100615.98;5257189;55;976265;-67
2022/09/24 09:23:24;;;;;;;9.80;6.97;;;;;;;14.01;87.66;100619.56;5158398;56;1138925;-66
2022/09/24 09:28:31;;;;;;;14.43;7.30;;;;;;;14.21;88.19;100614.58;5145764;56;1138917;-67
2022/09/24 09:33:59;;;;;;;11.60;5.90;;;;;;;14.46;87.27;100617.70;5142051;57;1141120;-67
2022/09/24 09:39:29;;;;;;;7.80;4.70;;;;;;;14.65;85.56;100620.34;5223518;56;1141066;-67
2022/09/24 09:44:40;;;;;;;5.80;4.20;;;;;;;14.77;82.41;100617.88;5122900;56;1136956;-68
2022/09/24 09:49:50;;;;;;;6.53;4.07;;;;;;;14.91;80.65;100607.25;5115650;57;1136917;-69
2022/09/24 09:54:56;;;;;;;7.83;3.63;;;;;;;15.12;79.18;100606.56;5084473;57;1136822;-65
2022/09/24 10:00:04;;;;;;;18.00;8.53;;;;;;;15.27;77.87;100611.76;5287114;55;1136849;-67
2022/09/24 10:05:16;;;;;;;5.10;3.27;;;;;;;15.40;76.51;100596.27;5316195;55;1139076;-68
2022/09/24 10:10:27;;;;;;;6.90;3.50;;;;;;;15.57;77.29;100601.33;5317291;55;1136898;-68
2022/09/24 10:15:32;;;;;;;3.08;2.75;;;;;;;15.70;75.62;100600.97;5316491;55;1136904;-69
2022/09/24 10:20:38;;;;;;;5.67;2.80;;;;;;;15.80;74.83;100600.40;5244741;55;1136937;-67
2022/09/24 10:25:50;;;;;;;3.83;3.10;;;;;;;15.96;74.50;100603.73;5162930;56;1136832;-66
2022/09/24 10:31:06;;;;;;;41.77;18.57;;;;;;;16.18;74.50;100599.29;5219109;56;1137141;-65
2022/09/24 10:36:31;;;;;;;4.73;2.70;;;;;;;16.40;74.34;100596.63;5190822;56;1138959;-68
2022/09/24 10:41:37;;;;;;;2.73;2.53;;;;;;;16.64;74.60;100588.84;4998228;58;1139040;-65
2022/09/24 10:51:27;;;;;;;8.20;2.90;;;;;;;16.86;69.82;100581.62;5170091;54;46332;-65
2022/09/24 10:56:41;;;;;;;8.27;4.70;;;;;;;16.83;66.64;100577.09;5066139;58;1135304;-67
2022/09/24 11:02:22;;;;;;;11.83;5.93;;;;;;;16.71;67.87;100584.54;4950252;59;1139335;-67
2022/09/24 11:07:55;;;;;;;5.83;3.53;;;;;;;16.56;65.64;100579.89;4968675;58;1141180;-70
2022/09/24 11:13:40;;;;;;;4.63;3.10;;;;;;;16.49;64.89;100577.86;5031227;58;1139014;-66
2022/09/24 11:19:02;;;;;;;;;;;;;;;16.40;64.22;100565.92;5050010;58;1139030;-70
2022/09/24 11:24:23;;;;;;;5.53;3.37;;;;;;;16.38;63.60;100567.41;5115507;57;976579;-66
2022/09/24 11:30:11;;;;;;;4.53;3.17;;;;;;;16.41;64.92;100568.44;5096480;57;1136952;-68
2022/09/24 11:35:45;;;;;;;4.13;2.77;;;;;;;16.59;65.46;100568.91;5104645;57;1137311;-67
2022/09/24 11:41:09;;;;;;;4.00;2.83;;;;;;;16.72;65.34;100563.52;5104763;57;1137272;-70
2022/09/24 11:46:50;;;;;;;8.50;2.80;;;;;;;16.87;63.86;100560.60;4988806;58;1137047;-70
2022/09/24 11:52:21;;;;;;;12.97;5.67;;;;;;;17.00;64.97;100558.83;4977393;58;1138353;-69
2022/09/24 11:57:31;;;;;;;42.20;23.40;;;;;;;17.22;59.26;100548.08;4965229;58;1141083;-67
2022/09/24 12:02:57;;;;;;;5.63;4.60;;;;;;;17.24;58.65;100564.80;4887231;59;1143539;-68
2022/09/24 12:08:31;;;;;;;4.43;3.20;;;;;;;17.17;59.62;100567.27;4912527;58;1139226;-66
2022/09/24 12:13:46;;;;;;;7.33;4.37;;;;;;;17.12;57.98;100562.89;5009419;58;1139240;-68
2022/09/24 12:19:21;;;;;;;4.10;2.03;;;;;;;16.81;58.63;100545.69;4969511;59;1139047;-69
2022/09/24 12:24:49;;;;;;;2.80;2.00;;;;;;;16.81;58.63;100545.69;4946427;59;1139113;-66
2022/09/24 12:36:10;;;;;;;3.83;1.97;;;;;;;16.77;58.90;100553.20;4955531;58;1136977;-68
2022/09/24 12:41:36;;;;;;;9.33;3.03;;;;;;;16.76;59.36;100558.20;4984959;58;1137297;-67
2022/09/24 12:46:48;;;;;;;2.60;2.27;;;;;;;16.83;58.86;100554.39;5033299;58;21189;-66
2022/09/24 12:52:07;;;;;;;2.42;2.22;;;;;;;17.01;58.92;100552.98;5023572;58;22106;-71
2022/09/24 12:57:29;;;;;;;8.97;4.37;;;;;;;17.10;58.83;100536.01;5000595;58;1134792;-71
2022/09/24 13:05:07;;;;;;;21.10;11.50;;;;;;;17.24;59.09;100538.07;5186474;54;46280;-69
2022/09/24 13:10:26;;;;;;;6.03;2.83;;;;;;;17.22;58.82;100538.73;4977482;58;1136933;-68
2022/09/24 13:15:41;;;;;;;19.73;9.00;;;;;;;17.23;58.49;100535.89;5083468;57;1137124;-69
2022/09/24 13:21:00;;;;;;;9.67;2.93;;;;;;;17.23;58.66;100531.05;5133057;56;1138893;-66
2022/09/24 13:26:09;;;;;;;4.07;2.50;;;;;;;17.23;59.66;100522.53;5139280;56;1136943;-65
2022/09/24 13:31:31;;;;;;;2.70;2.40;;;;;;;17.31;59.72;100520.87;5110579;57;1137108;-67
2022/09/24 13:37:04;;;;;;;2.93;1.70;;;;;;;17.39;60.12;100515.56;5119912;56;1136884;-69
2022/09/24 13:42:26;;;;;;;5.15;1.85;;;;;;;17.49;60.39;100517.08;5142816;57;1138979;-67
2022/09/24 13:47:54;;;;;;;11.93;7.33;;;;;;;17.48;59.45;100515.91;5116626;57;1138816;-68
2022/09/24 13:53:14;;;;;;;3.90;3.60;;;;;;;17.43;58.82;100515.05;5059001;57;1141149;-68
2022/09/24 13:58:34;;;;;;;8.07;4.10;;;;;;;17.41;59.62;100517.08;5086230;57;1139118;-66
2022/09/24 14:03:40;;;;;;;10.67;2.10;;;;;;;17.41;60.29;100508.22;5112452;57;1139023;-71
2022/09/24 14:08:47;;;;;;;22.23;11.40;;;;;;;17.40;60.41;100505.20;5092296;57;1141371;-65
2022/09/24 14:13:55;;;;;;;11.13;4.37;;;;;;;17.40;59.21;100499.86;5059526;58;1143308;-66
2022/09/24 14:19:06;;;;;;;30.20;19.27;;;;;;;17.41;59.22;100504.20;5077504;56;1141229;-68
2022/09/24 14:24:19;;;;;;;8.03;4.40;;;;;;;17.44;58.30;100495.34;5103994;56;1143492;-67
2022/09/24 14:29:47;;;;;;;9.60;2.63;;;;;;;17.50;56.67;100493.36;5111698;56;1139027;-66
2022/09/24 14:35:07;;;;;;;2.33;2.13;;;;;;;17.69;58.81;100488.73;5128082;57;1139123;-70
2022/09/24 14:40:17;;;;;;;2.44;2.28;;;;;;;17.95;58.52;100496.61;5126418;56;1138891;-70
2022/09/24 14:45:33;;;;;;;1.92;1.80;;;;;;;18.12;56.71;100496.44;5081374;57;1139022;-70
2022/09/24 14:50:42;;;;;;;19.00;9.68;;;;;;;18.14;56.43;100501.63;5110271;57;1137021;-65
2022/09/24 14:55:48;;;;;;;7.03;5.03;;;;;;;18.16;56.40;100497.78;5082002;57;1139108;-66
2022/09/24 15:01:04;;;;;;;8.13;5.83;;;;;;;18.15;56.79;100498.78;5069809;57;1137048;-65
2022/09/24 15:06:23;;;;;;;7.10;4.92;;;;;;;18.11;57.15;100491.25;5024334;57;1137195;-67
2022/09/24 15:11:33;;;;;;;5.03;3.20;;;;;;;17.95;56.31;100495.27;4980259;57;1136960;-64
2022/09/24 15:16:38;;;;;;;6.00;3.03;;;;;;;17.81;56.65;100496.77;5088159;58;1137082;-70
2022/09/24 15:21:45;;;;;;;7.83;3.57;;;;;;;17.67;56.18;100488.91;5036378;58;1137020;-70
2022/09/24 15:27:22;;;;;;;3.63;2.50;;;;;;;17.59;57.59;100491.52;5028315;58;1136967;-69
2022/09/24 15:32:32;;;;;;;4.10;2.87;;;;;;;17.50;57.77;100484.49;5010865;58;1139151;-66
2022/09/24 15:37:41;;;;;;;6.50;5.00;;;;;;;17.36;57.95;100485.14;5028245;58;1139032;-68
2022/09/24 15:42:47;;;;;;;13.87;7.63;;;;;;;17.31;58.85;100482.94;5024225;58;1138959;-67
2022/09/24 15:47:53;;;;;;;10.70;5.57;;;;;;;17.25;58.77;100483.61;4877689;60;1141166;-65
2022/09/24 15:53:01;;;;;;;5.03;4.07;;;;;;;17.20;59.39;100492.11;4915273;59;1141257;-69
2022/09/24 15:58:13;;;;;;;5.83;3.80;;;;;;;17.18;59.65;100494.10;4839310;59;1139072;-66
2022/09/24 16:03:25;;;;;;;7.23;4.53;;;;;;;17.18;59.56;100495.44;4986899;58;1139059;-69
2022/09/24 16:08:31;;;;;;;11.43;5.15;;;;;;;17.13;60.02;100489.73;4952458;59;1139077;-70
2022/09/24 16:13:37;;;;;;;5.77;3.87;;;;;;;17.05;59.98;100495.06;5027299;58;1141131;-67
2022/09/24 16:18:42;;;;;;;24.47;18.43;;;;;;;16.94;60.08;100489.18;5027510;58;1139071;-69
2022/09/24 16:23:56;;;;;;;56.57;42.13;;;;;;;16.86;60.87;100488.13;4953228;59;1143366;-66
2022/09/24 16:29:05;;;;;;;44.03;27.10;;;;;;;16.82;61.51;100493.95;5007652;58;1143303;-68
2022/09/24 16:34:12;;;;;;;56.03;26.57;;;;;;;16.82;62.42;100494.78;5027192;58;1143240;-66
2022/09/24 16:39:18;;;;;;;82.77;30.27;;;;;;;16.81;63.47;100499.78;4952751;59;1143429;-68
2022/09/24 16:44:24;;;;;;;69.03;17.33;;;;;;;16.72;64.75;100500.75;5002941;58;1143272;-68
2022/09/24 16:49:29;;;;;;;59.10;11.13;;;;;;;16.55;65.51;100493.61;5025183;58;1142614;-69
2022/09/24 16:54:35;;;;;;;55.43;13.40;;;;;;;16.36;66.27;100499.99;5016080;58;1143245;-71
2022/09/24 16:59:42;;;;;;;62.23;20.13;;;;;;;16.23;67.07;100501.40;4948638;58;1143324;-67
2022/09/24 17:04:47;;;;;;;146.80;29.73;;;;;;;16.16;67.86;100503.88;4952166;59;1143513;-67
2022/09/24 17:15:19;;;;;;;84.23;21.87;;;;;;;15.91;68.70;100499.31;4962447;59;1145535;-68
2022/09/24 17:20:25;;;;;;;69.10;17.40;;;;;;;15.82;69.60;100501.08;4977507;59;1143230;-69
2022/09/24 17:25:30;;;;;;;81.97;18.77;;;;;;;15.76;70.77;100500.34;4999341;58;1143201;-67
2022/09/24 17:30:37;;;;;;;56.30;12.17;;;;;;;15.60;71.27;100498.36;4947402;58;1143288;-68
2022/09/24 17:35:53;;;;;;;80.97;13.53;;;;;;;15.43;71.94;100495.16;4947628;58;1143203;-68
2022/09/24 17:41:04;;;;;;;46.53;9.30;;;;;;;15.34;72.60;100501.40;4962657;58;1143378;-68
2022/09/24 17:46:13;;;;;;;31.87;6.90;;;;;;;15.30;73.23;100506.18;5008439;58;1139082;-68
2022/09/24 17:51:22;;;;;;;20.07;8.43;;;;;;;15.26;73.74;100502.16;5004689;58;1139049;-70
2022/09/24 17:56:37;;;;;;;19.73;8.10;;;;;;;15.27;73.91;100503.00;5011374;59;1139038;-64
2022/09/24 18:01:43;;;;;;;16.67;5.30;;;;;;;15.28;74.18;100505.98;5028033;58;1139028;-66
2022/09/24 18:06:50;;;;;;;26.60;13.20;;;;;;;15.22;74.49;100509.27;5027872;58;1139043;-65
2022/09/24 18:11:57;;;;;;;43.27;14.33;;;;;;;15.14;75.11;100517.48;4944915;59;1141183;-67
2022/09/24 18:17:03;;;;;;;36.53;10.73;;;;;;;15.11;75.54;100519.14;4966669;59;1141176;-64
2022/09/24 18:22:10;;;;;;;18.87;5.60;;;;;;;15.04;75.85;100523.86;4955011;58;1141349;-69
2022/09/24 18:27:16;;;;;;;37.03;10.00;;;;;;;15.01;76.35;100526.81;4947996;59;1139109;-67
2022/09/24 18:32:22;;;;;;;24.30;5.80;;;;;;;15.03;76.62;100526.17;4949318;59;1141159;-67
2022/09/24 18:37:29;;;;;;;44.60;6.93;;;;;;;15.05;76.81;100516.22;4979539;58;1139295;-67
2022/09/24 18:42:34;;;;;;;63.00;10.10;;;;;;;14.95;77.12;100528.27;4986186;59;1138420;-67
2022/09/24 18:47:40;;;;;;;18.53;8.87;;;;;;;14.91;77.84;100533.53;5005019;58;1141145;-67
2022/09/24 18:52:47;;;;;;;25.50;13.73;;;;;;;14.87;78.19;100533.95;5016548;58;1137486;-67
2022/09/24 18:57:53;;;;;;;42.03;22.83;;;;;;;14.83;78.67;100531.23;4871113;60;1139307;-71
2022/09/24 19:03:00;;;;;;;38.17;19.90;;;;;;;14.74;78.96;100535.13;4817823;61;1143115;-71
2022/09/24 19:08:06;;;;;;;104.50;53.23;;;;;;;14.61;79.38;100537.27;4802469;61;1145818;-70
2022/09/24 19:13:12;;;;;;;50.48;26.77;;;;;;;14.59;79.83;100537.06;4986241;58;1145247;-67
2022/09/24 19:18:18;;;;;;;102.58;53.48;;;;;;;14.63;80.37;100531.81;4911331;59;1143407;-69
2022/09/24 19:23:24;;;;;;;51.77;26.63;;;;;;;14.57;80.68;100535.87;5000572;58;1145219;-68
2022/09/24 19:28:30;;;;;;;37.47;19.63;;;;;;;14.50;80.96;100540.11;4958399;58;1143348;-67
2022/09/24 19:33:36;;;;;;;54.57;26.70;;;;;;;14.46;81.33;100537.88;4954625;58;1143225;-66
2022/09/24 19:38:42;;;;;;;40.73;14.77;;;;;;;14.37;81.92;100540.84;4956141;59;1143117;-68
2022/09/24 19:43:49;;;;;;;16.67;8.37;;;;;;;14.26;82.20;100538.35;4949273;59;1143266;-67
2022/09/24 19:48:57;;;;;;;15.07;7.97;;;;;;;14.22;82.66;100540.45;4970990;58;1141130;-66
2022/09/24 19:54:06;;;;;;;26.23;11.57;;;;;;;14.13;82.83;100535.99;4948956;59;1141132;-68
2022/09/24 19:59:13;;;;;;;90.13;38.87;;;;;;;14.03;82.90;100539.16;4912957;58;1143287;-67
2022/09/24 20:04:19;;;;;;;79.10;35.83;;;;;;;13.76;83.17;100531.85;4975076;58;1143273;-67
2022/09/24 20:09:26;;;;;;;85.73;33.30;;;;;;;13.60;83.43;100539.04;4964505;59;1143246;-69
2022/09/24 20:14:32;;;;;;;75.30;32.70;;;;;;;13.61;84.31;100538.55;4967284;58;1143189;-67
2022/09/24 20:19:38;;;;;;;98.77;44.57;;;;;;;13.72;84.83;100543.28;4968012;58;1143193;-67
2022/09/24 20:24:45;;;;;;;66.40;27.63;;;;;;;13.84;85.10;100539.15;5027749;58;1143141;-67
2022/09/24 20:29:52;;;;;;;38.43;19.87;;;;;;;13.80;85.02;100534.59;4984954;58;1143241;-66
2022/09/24 20:35:00;;;;;;;42.20;19.27;;;;;;;13.81;85.51;100536.77;4991595;58;1143457;-70
2022/09/24 20:40:08;;;;;;;26.33;13.47;;;;;;;13.75;85.29;100533.35;5032753;57;1143237;-69
2022/09/24 20:45:14;;;;;;;25.23;12.20;;;;;;;13.73;85.73;100534.33;4866918;59;1143212;-70
2022/09/24 20:50:21;;;;;;;38.87;19.03;;;;;;;13.69;85.79;100538.72;4864670;60;1143291;-69
2022/09/24 20:55:27;;;;;;;24.17;14.47;;;;;;;13.72;86.00;100541.95;4981602;58;1143227;-70
2022/09/24 21:00:35;;;;;;;29.10;13.03;;;;;;;13.71;86.08;100543.41;4978107;58;1143496;-69
2022/09/24 21:05:42;;;;;;;17.70;10.60;;;;;;;13.64;86.28;100547.10;4906953;58;1143236;-66
2022/09/24 21:10:51;;;;;;;18.57;9.33;;;;;;;13.61;86.43;100552.69;4924536;59;1143180;-69
2022/09/24 21:16:04;;;;;;;14.17;8.37;;;;;;;13.63;86.62;100540.10;5032122;57;1141141;-66
2022/09/24 21:21:17;;;;;;;21.10;9.97;;;;;;;13.66;86.67;100547.80;4988822;58;1141168;-69
2022/09/24 21:26:35;;;;;;;27.70;13.97;;;;;;;13.63;86.69;100544.09;4949884;58;1141464;-67
2022/09/24 21:31:42;;;;;;;30.97;17.07;;;;;;;13.57;87.03;100542.48;4960269;59;1143234;-68
2022/09/24 21:36:48;;;;;;;90.33;43.33;;;;;;;13.53;87.17;100539.26;5050136;57;1143514;-67
2022/09/24 21:41:58;;;;;;;104.03;50.87;;;;;;;13.49;86.99;100538.33;5095603;57;1141183;-69
2022/09/24 21:47:03;;;;;;;79.20;42.17;;;;;;;13.51;87.15;100534.56;5082003;57;1143471;-70
2022/09/24 21:52:09;;;;;;;32.90;15.07;;;;;;;13.52;87.19;100536.73;5006452;58;1141241;-68
2022/09/24 21:57:14;;;;;;;39.17;21.60;;;;;;;13.52;87.49;100536.25;5089439;57;1141236;-69
2022/09/24 22:02:20;;;;;;;25.43;13.70;;;;;;;13.49;87.73;100531.69;5038986;57;1141153;-69
2022/09/24 22:07:26;;;;;;;24.33;11.67;;;;;;;13.37;87.80;100533.14;5020568;58;1140618;-66
2022/09/24 22:12:33;;;;;;;27.60;9.37;;;;;;;13.27;87.67;100526.98;4993570;57;1141120;-66
2022/09/24 22:17:39;;;;;;;21.90;8.50;;;;;;;13.27;88.34;100526.98;5045958;57;1139255;-67
2022/09/24 22:22:45;;;;;;;15.70;8.60;;;;;;;13.35;88.84;100527.12;5014961;58;1139043;-69
2022/09/24 22:27:50;;;;;;;19.07;9.33;;;;;;;13.41;89.09;100527.08;4987728;58;1139066;-68
2022/09/24 22:32:57;;;;;;;16.03;9.23;;;;;;;13.42;89.06;100526.11;5006530;58;1139108;-69
2022/09/24 22:38:03;;;;;;;18.30;8.63;;;;;;;13.34;88.75;100517.96;4990409;58;1139026;-68
2022/09/24 22:43:09;;;;;;;17.27;10.47;;;;;;;13.28;88.67;100516.71;5024567;58;1139031;-69
2022/09/24 22:48:14;;;;;;;20.87;11.27;;;;;;;13.23;88.28;100517.59;5061741;57;1141162;-67
2022/09/24 22:53:20;;;;;;;17.87;10.10;;;;;;;13.21;88.73;100512.06;4966566;57;1141160;-70
2022/09/24 22:58:26;;;;;;;21.73;10.63;;;;;;;13.18;88.93;100507.86;4948590;58;1141201;-68
2022/09/24 23:03:33;;;;;;;22.60;11.57;;;;;;;13.15;89.09;100508.13;5065267;57;1141684;-68
2022/09/24 23:08:40;;;;;;;19.00;10.73;;;;;;;13.14;89.21;100501.62;4956598;57;1139089;-68
2022/09/24 23:13:49;;;;;;;18.00;9.68;;;;;;;13.18;89.29;100509.19;4870754;59;1139045;-65
2022/09/24 23:18:59;;;;;;;16.13;10.70;;;;;;;13.23;89.41;100510.11;4901301;59;1141383;-70
2022/09/24 23:24:09;;;;;;;25.07;13.47;;;;;;;13.26;89.54;100509.84;4753704;59;1143259;-70
2022/09/24 23:29:16;;;;;;;30.67;16.80;;;;;;;13.22;89.37;100506.62;4864351;58;1143168;-67
2022/09/24 23:34:22;;;;;;;26.10;14.63;;;;;;;13.16;89.42;100504.98;4934449;59;1143702;-70
2022/09/24 23:39:28;;;;;;;46.67;18.07;;;;;;;13.07;89.51;100507.94;4835893;59;1143324;-67
2022/09/24 23:44:35;;;;;;;42.27;19.60;;;;;;;12.99;89.59;100503.29;4969799;58;1143233;-66
2022/09/24 23:49:41;;;;;;;26.20;12.97;;;;;;;12.97;90.17;100501.28;4957367;58;1143305;-70